sensor_id;sensor_type;location;lat;lon;timestamp;P1;durP1;ratioP1;P2;durP2;ratioP2
71671;SDS011;62112;45.638;11.714;2023-01-10T00:00:11;6.23;;;3.70;;
71671;SDS011;62112;45.638;11.714;2023-01-10T00:02:37;8.98;;;4.30;;
71671;SDS011;62112;45.638;11.714;2023-01-10T00:05:03;7.13;;;4.05;;
71671;SDS011;62112;45.638;11.714;2023-01-10T00:07:29;7.55;;;4.30;;
71671;SDS011;62112;45.638;11.714;2023-01-10T00:09:55;7.53;;;4.10;;
71671;SDS011;62112;45.638;11.714;2023-01-10T00:12:21;6.40;;;3.70;;
71671;SDS011;62112;45.638;11.714;2023-01-10T00:15:05;7.20;;;3.90;;
71671;SDS011;62112;45.638;11.714;2023-01-10T00:17:32;7.70;;;4.15;;
71671;SDS011;62112;45.638;11.714;2023-01-10T00:19:57;7.20;;;3.80;;
71671;SDS011;62112;45.638;11.714;2023-01-10T00:22:23;6.80;;;4.00;;
71671;SDS011;62112;45.638;11.714;2023-01-10T00:24:50;6.57;;;3.88;;
71671;SDS011;62112;45.638;11.714;2023-01-10T00:27:16;6.57;;;3.70;;
71671;SDS011;62112;45.638;11.714;2023-01-10T00:29:47;6.82;;;3.55;;
71671;SDS011;62112;45.638;11.714;2023-01-10T00:32:16;7.07;;;4.07;;
71671;SDS011;62112;45.638;11.714;2023-01-10T00:34:42;7.30;;;3.80;;
71671;SDS011;62112;45.638;11.714;2023-01-10T00:37:08;6.80;;;3.93;;
71671;SDS011;62112;45.638;11.714;2023-01-10T00:39:34;6.78;;;3.75;;
71671;SDS011;62112;45.638;11.714;2023-01-10T00:42:00;7.50;;;3.85;;
71671;SDS011;62112;45.638;11.714;2023-01-10T00:44:54;6.70;;;3.70;;
71671;SDS011;62112;45.638;11.714;2023-01-10T00:47:20;7.35;;;3.97;;
71671;SDS011;62112;45.638;11.714;2023-01-10T00:49:46;6.93;;;3.80;;
71671;SDS011;62112;45.638;11.714;2023-01-10T00:52:12;7.10;;;4.17;;
71671;SDS011;62112;45.638;11.714;2023-01-10T00:54:37;7.30;;;3.83;;
71671;SDS011;62112;45.638;11.714;2023-01-10T00:57:03;6.60;;;3.73;;
71671;SDS011;62112;45.638;11.714;2023-01-10T00:59:29;7.50;;;3.72;;
71671;SDS011;62112;45.638;11.714;2023-01-10T01:01:55;7.10;;;3.90;;
71671;SDS011;62112;45.638;11.714;2023-01-10T01:04:21;6.37;;;3.40;;
71671;SDS011;62112;45.638;11.714;2023-01-10T01:06:47;6.55;;;3.75;;
71671;SDS011;62112;45.638;11.714;2023-01-10T01:09:14;6.75;;;3.63;;
71671;SDS011;62112;45.638;11.714;2023-01-10T01:11:41;7.60;;;3.90;;
71671;SDS011;62112;45.638;11.714;2023-01-10T01:14:06;7.60;;;4.23;;
71671;SDS011;62112;45.638;11.714;2023-01-10T01:16:32;7.13;;;4.10;;
71671;SDS011;62112;45.638;11.714;2023-01-10T01:18:58;6.85;;;3.70;;
71671;SDS011;62112;45.638;11.714;2023-01-10T01:21:24;7.53;;;3.60;;
71671;SDS011;62112;45.638;11.714;2023-01-10T01:23:53;6.65;;;3.55;;
71671;SDS011;62112;45.638;11.714;2023-01-10T01:26:23;6.88;;;3.63;;
71671;SDS011;62112;45.638;11.714;2023-01-10T01:28:49;6.63;;;3.70;;
71671;SDS011;62112;45.638;11.714;2023-01-10T01:31:15;6.97;;;3.50;;
71671;SDS011;62112;45.638;11.714;2023-01-10T01:33:41;7.43;;;3.73;;
71671;SDS011;62112;45.638;11.714;2023-01-10T01:36:07;7.32;;;3.80;;
71671;SDS011;62112;45.638;11.714;2023-01-10T01:38:35;6.55;;;3.47;;
71671;SDS011;62112;45.638;11.714;2023-01-10T01:41:02;6.35;;;3.25;;
71671;SDS011;62112;45.638;11.714;2023-01-10T01:46:43;6.03;;;3.40;;
71671;SDS011;62112;45.638;11.714;2023-01-10T01:49:14;6.43;;;3.50;;
71671;SDS011;62112;45.638;11.714;2023-01-10T01:51:44;6.30;;;3.30;;
71671;SDS011;62112;45.638;11.714;2023-01-10T01:54:17;6.55;;;3.40;;
71671;SDS011;62112;45.638;11.714;2023-01-10T01:56:45;6.13;;;3.40;;
71671;SDS011;62112;45.638;11.714;2023-01-10T01:59:23;6.40;;;3.45;;
71671;SDS011;62112;45.638;11.714;2023-01-10T02:01:56;6.50;;;3.30;;
71671;SDS011;62112;45.638;11.714;2023-01-10T02:04:37;6.13;;;3.15;;
71671;SDS011;62112;45.638;11.714;2023-01-10T02:07:11;5.68;;;2.85;;
71671;SDS011;62112;45.638;11.714;2023-01-10T02:12:12;6.13;;;2.90;;
71671;SDS011;62112;45.638;11.714;2023-01-10T02:14:39;6.03;;;3.20;;
71671;SDS011;62112;45.638;11.714;2023-01-10T02:17:09;4.97;;;2.53;;
71671;SDS011;62112;45.638;11.714;2023-01-10T02:34:27;5.88;;;3.00;;
71671;SDS011;62112;45.638;11.714;2023-01-10T02:39:54;5.45;;;2.70;;
71671;SDS011;62112;45.638;11.714;2023-01-10T02:45:39;6.10;;;2.70;;
71671;SDS011;62112;45.638;11.714;2023-01-10T02:48:10;4.90;;;2.65;;
71671;SDS011;62112;45.638;11.714;2023-01-10T02:51:00;5.47;;;2.67;;
71671;SDS011;62112;45.638;11.714;2023-01-10T02:53:33;5.75;;;2.75;;
71671;SDS011;62112;45.638;11.714;2023-01-10T02:56:11;5.82;;;2.70;;
71671;SDS011;62112;45.638;11.714;2023-01-10T03:06:33;5.07;;;2.55;;
71671;SDS011;62112;45.638;11.714;2023-01-10T03:09:18;5.57;;;2.72;;
71671;SDS011;62112;45.638;11.714;2023-01-10T03:11:50;5.75;;;2.70;;
71671;SDS011;62112;45.638;11.714;2023-01-10T03:14:25;5.77;;;2.50;;
71671;SDS011;62112;45.638;11.714;2023-01-10T03:16:57;5.65;;;2.67;;
71671;SDS011;62112;45.638;11.714;2023-01-10T03:19:28;5.07;;;2.47;;
71671;SDS011;62112;45.638;11.714;2023-01-10T03:21:58;5.60;;;2.60;;
71671;SDS011;62112;45.638;11.714;2023-01-10T03:24:28;5.80;;;2.55;;
71671;SDS011;62112;45.638;11.714;2023-01-10T03:32:26;5.25;;;2.65;;
71671;SDS011;62112;45.638;11.714;2023-01-10T03:34:54;5.15;;;2.58;;
71671;SDS011;62112;45.638;11.714;2023-01-10T03:42:42;5.97;;;2.90;;
71671;SDS011;62112;45.638;11.714;2023-01-10T03:45:29;5.00;;;2.42;;
71671;SDS011;62112;45.638;11.714;2023-01-10T03:48:03;5.50;;;2.30;;
71671;SDS011;62112;45.638;11.714;2023-01-10T03:50:32;5.80;;;2.55;;
71671;SDS011;62112;45.638;11.714;2023-01-10T03:52:59;4.67;;;2.27;;
71671;SDS011;62112;45.638;11.714;2023-01-10T03:55:26;5.35;;;2.58;;
71671;SDS011;62112;45.638;11.714;2023-01-10T03:57:53;4.70;;;2.40;;
71671;SDS011;62112;45.638;11.714;2023-01-10T04:00:19;5.45;;;2.63;;
71671;SDS011;62112;45.638;11.714;2023-01-10T04:02:45;4.60;;;2.27;;
71671;SDS011;62112;45.638;11.714;2023-01-10T04:05:11;5.13;;;2.40;;
71671;SDS011;62112;45.638;11.714;2023-01-10T04:07:37;5.00;;;2.65;;
71671;SDS011;62112;45.638;11.714;2023-01-10T04:10:03;5.50;;;2.63;;
71671;SDS011;62112;45.638;11.714;2023-01-10T04:12:30;5.18;;;2.35;;
71671;SDS011;62112;45.638;11.714;2023-01-10T04:14:56;5.23;;;2.33;;
71671;SDS011;62112;45.638;11.714;2023-01-10T04:17:21;5.03;;;2.33;;
71671;SDS011;62112;45.638;11.714;2023-01-10T04:19:47;5.40;;;2.53;;
71671;SDS011;62112;45.638;11.714;2023-01-10T04:22:13;4.67;;;2.10;;
71671;SDS011;62112;45.638;11.714;2023-01-10T04:24:39;5.60;;;2.60;;
71671;SDS011;62112;45.638;11.714;2023-01-10T04:27:05;5.38;;;2.63;;
71671;SDS011;62112;45.638;11.714;2023-01-10T04:29:31;5.22;;;2.42;;
71671;SDS011;62112;45.638;11.714;2023-01-10T04:31:57;4.70;;;2.30;;
71671;SDS011;62112;45.638;11.714;2023-01-10T04:34:25;4.93;;;2.30;;
71671;SDS011;62112;45.638;11.714;2023-01-10T04:36:51;5.13;;;2.25;;
71671;SDS011;62112;45.638;11.714;2023-01-10T04:39:17;4.60;;;2.30;;
71671;SDS011;62112;45.638;11.714;2023-01-10T04:41:43;4.85;;;2.45;;
71671;SDS011;62112;45.638;11.714;2023-01-10T04:44:09;5.03;;;2.30;;
71671;SDS011;62112;45.638;11.714;2023-01-10T04:46:35;4.60;;;2.20;;
71671;SDS011;62112;45.638;11.714;2023-01-10T04:49:01;4.72;;;2.22;;
71671;SDS011;62112;45.638;11.714;2023-01-10T04:51:27;4.55;;;2.25;;
71671;SDS011;62112;45.638;11.714;2023-01-10T04:53:53;5.73;;;2.27;;
71671;SDS011;62112;45.638;11.714;2023-01-10T04:56:20;4.75;;;2.15;;
71671;SDS011;62112;45.638;11.714;2023-01-10T04:58:47;4.97;;;2.13;;
71671;SDS011;62112;45.638;11.714;2023-01-10T05:01:18;4.80;;;2.20;;
71671;SDS011;62112;45.638;11.714;2023-01-10T05:03:51;5.55;;;2.30;;
71671;SDS011;62112;45.638;11.714;2023-01-10T05:06:18;4.93;;;2.00;;
71671;SDS011;62112;45.638;11.714;2023-01-10T05:08:45;5.10;;;2.40;;
71671;SDS011;62112;45.638;11.714;2023-01-10T05:11:12;4.65;;;2.08;;
71671;SDS011;62112;45.638;11.714;2023-01-10T05:13:38;4.63;;;2.10;;
71671;SDS011;62112;45.638;11.714;2023-01-10T05:16:04;4.65;;;2.00;;
71671;SDS011;62112;45.638;11.714;2023-01-10T05:18:30;5.30;;;2.10;;
71671;SDS011;62112;45.638;11.714;2023-01-10T05:21:03;5.40;;;2.50;;
71671;SDS011;62112;45.638;11.714;2023-01-10T05:23:34;5.28;;;2.30;;
71671;SDS011;62112;45.638;11.714;2023-01-10T05:26:19;4.05;;;2.00;;
71671;SDS011;62112;45.638;11.714;2023-01-10T05:28:46;5.32;;;2.13;;
71671;SDS011;62112;45.638;11.714;2023-01-10T05:31:13;4.53;;;2.10;;
71671;SDS011;62112;45.638;11.714;2023-01-10T05:33:48;5.07;;;2.20;;
71671;SDS011;62112;45.638;11.714;2023-01-10T05:36:14;4.78;;;2.10;;
71671;SDS011;62112;45.638;11.714;2023-01-10T05:38:41;4.53;;;1.92;;
71671;SDS011;62112;45.638;11.714;2023-01-10T05:41:07;3.90;;;1.90;;
71671;SDS011;62112;45.638;11.714;2023-01-10T05:43:33;4.30;;;2.00;;
71671;SDS011;62112;45.638;11.714;2023-01-10T05:45:59;4.60;;;2.20;;
71671;SDS011;62112;45.638;11.714;2023-01-10T05:48:24;3.80;;;1.70;;
71671;SDS011;62112;45.638;11.714;2023-01-10T05:50:50;5.05;;;2.10;;
71671;SDS011;62112;45.638;11.714;2023-01-10T05:53:17;4.90;;;2.10;;
71671;SDS011;62112;45.638;11.714;2023-01-10T05:55:43;3.97;;;1.70;;
71671;SDS011;62112;45.638;11.714;2023-01-10T05:58:19;4.50;;;1.80;;
71671;SDS011;62112;45.638;11.714;2023-01-10T06:00:44;3.72;;;1.77;;
71671;SDS011;62112;45.638;11.714;2023-01-10T06:03:10;4.13;;;1.70;;
71671;SDS011;62112;45.638;11.714;2023-01-10T06:05:36;4.30;;;1.90;;
71671;SDS011;62112;45.638;11.714;2023-01-10T06:08:02;4.22;;;1.80;;
71671;SDS011;62112;45.638;11.714;2023-01-10T06:10:28;4.68;;;2.00;;
71671;SDS011;62112;45.638;11.714;2023-01-10T06:12:54;4.60;;;1.80;;
71671;SDS011;62112;45.638;11.714;2023-01-10T06:15:19;3.95;;;1.70;;
71671;SDS011;62112;45.638;11.714;2023-01-10T06:17:45;4.53;;;2.00;;
71671;SDS011;62112;45.638;11.714;2023-01-10T06:20:11;4.57;;;1.93;;
71671;SDS011;62112;45.638;11.714;2023-01-10T06:22:41;3.88;;;1.70;;
71671;SDS011;62112;45.638;11.714;2023-01-10T06:25:10;3.60;;;1.60;;
71671;SDS011;62112;45.638;11.714;2023-01-10T06:27:40;4.22;;;1.90;;
71671;SDS011;62112;45.638;11.714;2023-01-10T06:30:07;4.90;;;1.93;;
71671;SDS011;62112;45.638;11.714;2023-01-10T06:32:35;3.85;;;1.80;;
71671;SDS011;62112;45.638;11.714;2023-01-10T06:35:01;4.07;;;1.75;;
71671;SDS011;62112;45.638;11.714;2023-01-10T06:37:28;4.15;;;1.77;;
71671;SDS011;62112;45.638;11.714;2023-01-10T06:39:56;4.75;;;1.90;;
71671;SDS011;62112;45.638;11.714;2023-01-10T06:42:26;3.73;;;1.70;;
71671;SDS011;62112;45.638;11.714;2023-01-10T06:44:52;4.55;;;1.90;;
71671;SDS011;62112;45.638;11.714;2023-01-10T06:47:18;4.10;;;1.90;;
71671;SDS011;62112;45.638;11.714;2023-01-10T06:49:44;4.10;;;1.80;;
71671;SDS011;62112;45.638;11.714;2023-01-10T06:52:10;4.83;;;1.77;;
71671;SDS011;62112;45.638;11.714;2023-01-10T06:54:36;3.83;;;1.67;;
71671;SDS011;62112;45.638;11.714;2023-01-10T06:57:01;3.93;;;1.80;;
71671;SDS011;62112;45.638;11.714;2023-01-10T06:59:28;3.70;;;1.67;;
71671;SDS011;62112;45.638;11.714;2023-01-10T07:01:55;4.03;;;1.70;;
71671;SDS011;62112;45.638;11.714;2023-01-10T07:04:21;3.70;;;1.70;;
71671;SDS011;62112;45.638;11.714;2023-01-10T07:06:47;5.00;;;1.80;;
71671;SDS011;62112;45.638;11.714;2023-01-10T07:09:13;4.88;;;1.90;;
71671;SDS011;62112;45.638;11.714;2023-01-10T07:11:39;5.30;;;1.85;;
71671;SDS011;62112;45.638;11.714;2023-01-10T07:14:05;3.87;;;1.80;;
71671;SDS011;62112;45.638;11.714;2023-01-10T07:16:31;4.63;;;1.90;;
71671;SDS011;62112;45.638;11.714;2023-01-10T07:18:58;7.35;;;1.98;;
71671;SDS011;62112;45.638;11.714;2023-01-10T07:21:24;4.73;;;2.00;;
71671;SDS011;62112;45.638;11.714;2023-01-10T07:23:50;7.25;;;2.00;;
71671;SDS011;62112;45.638;11.714;2023-01-10T07:26:17;8.07;;;2.00;;
71671;SDS011;62112;45.638;11.714;2023-01-10T07:28:44;6.25;;;2.10;;
71671;SDS011;62112;45.638;11.714;2023-01-10T07:31:15;5.38;;;1.90;;
71671;SDS011;62112;45.638;11.714;2023-01-10T07:33:43;5.20;;;1.87;;
71671;SDS011;62112;45.638;11.714;2023-01-10T07:36:09;5.50;;;1.73;;
71671;SDS011;62112;45.638;11.714;2023-01-10T07:38:39;6.75;;;1.88;;
71671;SDS011;62112;45.638;11.714;2023-01-10T07:41:05;4.85;;;1.92;;
71671;SDS011;62112;45.638;11.714;2023-01-10T07:43:32;7.00;;;2.40;;
71671;SDS011;62112;45.638;11.714;2023-01-10T07:46:02;6.97;;;2.10;;
71671;SDS011;62112;45.638;11.714;2023-01-10T07:48:33;7.15;;;2.10;;
71671;SDS011;62112;45.638;11.714;2023-01-10T07:51:00;5.82;;;2.03;;
71671;SDS011;62112;45.638;11.714;2023-01-10T07:53:27;5.63;;;2.10;;
71671;SDS011;62112;45.638;11.714;2023-01-10T07:55:58;4.85;;;2.10;;
71671;SDS011;62112;45.638;11.714;2023-01-10T07:58:30;5.83;;;2.20;;
71671;SDS011;62112;45.638;11.714;2023-01-10T08:00:59;6.18;;;2.30;;
71671;SDS011;62112;45.638;11.714;2023-01-10T08:03:27;7.28;;;2.17;;
71671;SDS011;62112;45.638;11.714;2023-01-10T08:06:04;6.10;;;2.17;;
71671;SDS011;62112;45.638;11.714;2023-01-10T08:08:34;5.80;;;2.30;;
71671;SDS011;62112;45.638;11.714;2023-01-10T08:11:00;7.40;;;2.10;;
71671;SDS011;62112;45.638;11.714;2023-01-10T08:13:27;7.13;;;2.35;;
71671;SDS011;62112;45.638;11.714;2023-01-10T08:15:54;4.93;;;2.17;;
71671;SDS011;62112;45.638;11.714;2023-01-10T08:18:20;7.00;;;2.20;;
71671;SDS011;62112;45.638;11.714;2023-01-10T08:20:48;6.43;;;1.93;;
71671;SDS011;62112;45.638;11.714;2023-01-10T08:23:15;6.97;;;2.15;;
71671;SDS011;62112;45.638;11.714;2023-01-10T08:25:42;5.78;;;1.90;;
71671;SDS011;62112;45.638;11.714;2023-01-10T08:28:08;6.53;;;2.10;;
71671;SDS011;62112;45.638;11.714;2023-01-10T08:30:35;5.90;;;2.30;;
71671;SDS011;62112;45.638;11.714;2023-01-10T08:33:02;6.17;;;2.53;;
71671;SDS011;62112;45.638;11.714;2023-01-10T08:35:28;4.85;;;2.00;;
71671;SDS011;62112;45.638;11.714;2023-01-10T08:37:58;4.43;;;1.88;;
71671;SDS011;62112;45.638;11.714;2023-01-10T08:40:25;5.00;;;2.00;;
71671;SDS011;62112;45.638;11.714;2023-01-10T08:42:58;4.93;;;2.10;;
71671;SDS011;62112;45.638;11.714;2023-01-10T08:45:28;5.53;;;2.00;;
71671;SDS011;62112;45.638;11.714;2023-01-10T08:47:55;4.93;;;2.00;;
71671;SDS011;62112;45.638;11.714;2023-01-10T08:50:21;5.28;;;2.20;;
71671;SDS011;62112;45.638;11.714;2023-01-10T08:52:48;5.88;;;1.90;;
71671;SDS011;62112;45.638;11.714;2023-01-10T08:55:15;6.55;;;2.30;;
71671;SDS011;62112;45.638;11.714;2023-01-10T08:57:43;5.30;;;2.30;;
71671;SDS011;62112;45.638;11.714;2023-01-10T09:00:14;5.72;;;2.00;;
71671;SDS011;62112;45.638;11.714;2023-01-10T09:02:47;7.32;;;2.13;;
71671;SDS011;62112;45.638;11.714;2023-01-10T09:05:13;4.90;;;2.10;;
71671;SDS011;62112;45.638;11.714;2023-01-10T09:07:44;4.60;;;2.05;;
71671;SDS011;62112;45.638;11.714;2023-01-10T09:10:12;5.57;;;2.23;;
71671;SDS011;62112;45.638;11.714;2023-01-10T09:12:38;5.00;;;2.35;;
71671;SDS011;62112;45.638;11.714;2023-01-10T09:15:20;5.28;;;2.42;;
71671;SDS011;62112;45.638;11.714;2023-01-10T09:17:48;5.25;;;2.25;;
71671;SDS011;62112;45.638;11.714;2023-01-10T09:20:26;6.00;;;2.40;;
71671;SDS011;62112;45.638;11.714;2023-01-10T09:23:14;6.57;;;2.27;;
71671;SDS011;62112;45.638;11.714;2023-01-10T09:25:47;5.53;;;2.33;;
71671;SDS011;62112;45.638;11.714;2023-01-10T09:28:16;6.50;;;2.60;;
71671;SDS011;62112;45.638;11.714;2023-01-10T09:30:46;5.05;;;2.25;;
71671;SDS011;62112;45.638;11.714;2023-01-10T09:33:13;5.20;;;2.58;;
71671;SDS011;62112;45.638;11.714;2023-01-10T09:35:44;6.60;;;2.53;;
71671;SDS011;62112;45.638;11.714;2023-01-10T09:38:12;5.20;;;2.40;;
71671;SDS011;62112;45.638;11.714;2023-01-10T09:43:19;5.25;;;2.40;;
71671;SDS011;62112;45.638;11.714;2023-01-10T09:46:02;5.28;;;2.30;;
71671;SDS011;62112;45.638;11.714;2023-01-10T09:49:04;5.17;;;2.50;;
71671;SDS011;62112;45.638;11.714;2023-01-10T09:51:52;5.90;;;2.28;;
71671;SDS011;62112;45.638;11.714;2023-01-10T09:54:24;7.40;;;2.30;;
71671;SDS011;62112;45.638;11.714;2023-01-10T09:56:53;5.40;;;2.40;;
71671;SDS011;62112;45.638;11.714;2023-01-10T09:59:24;5.53;;;2.47;;
71671;SDS011;62112;45.638;11.714;2023-01-10T10:07:42;6.95;;;2.95;;
71671;SDS011;62112;45.638;11.714;2023-01-10T10:10:11;5.85;;;2.65;;
71671;SDS011;62112;45.638;11.714;2023-01-10T10:21:54;7.85;;;2.53;;
71671;SDS011;62112;45.638;11.714;2023-01-10T10:33:05;5.88;;;2.70;;
71671;SDS011;62112;45.638;11.714;2023-01-10T10:35:57;6.25;;;2.50;;
71671;SDS011;62112;45.638;11.714;2023-01-10T10:38:29;5.30;;;2.60;;
71671;SDS011;62112;45.638;11.714;2023-01-10T10:40:59;5.85;;;2.72;;
71671;SDS011;62112;45.638;11.714;2023-01-10T10:43:31;6.10;;;2.60;;
71671;SDS011;62112;45.638;11.714;2023-01-10T10:46:04;5.03;;;2.45;;
71671;SDS011;62112;45.638;11.714;2023-01-10T10:48:41;7.20;;;2.80;;
71671;SDS011;62112;45.638;11.714;2023-01-10T10:51:56;5.30;;;2.40;;
71671;SDS011;62112;45.638;11.714;2023-01-10T10:54:10;6.47;;;2.60;;
71671;SDS011;62112;45.638;11.714;2023-01-10T10:56:38;5.70;;;2.83;;
71671;SDS011;62112;45.638;11.714;2023-01-10T10:59:05;5.32;;;2.63;;
71671;SDS011;62112;45.638;11.714;2023-01-10T11:01:32;5.80;;;2.70;;
71671;SDS011;62112;45.638;11.714;2023-01-10T11:04:11;6.15;;;2.80;;
71671;SDS011;62112;45.638;11.714;2023-01-10T11:06:48;7.25;;;2.72;;
71671;SDS011;62112;45.638;11.714;2023-01-10T11:09:21;5.90;;;2.50;;
71671;SDS011;62112;45.638;11.714;2023-01-10T11:11:59;6.40;;;2.80;;
71671;SDS011;62112;45.638;11.714;2023-01-10T11:14:41;6.75;;;3.03;;
71671;SDS011;62112;45.638;11.714;2023-01-10T11:17:18;6.18;;;2.90;;
71671;SDS011;62112;45.638;11.714;2023-01-10T11:19:55;6.72;;;3.05;;
71671;SDS011;62112;45.638;11.714;2023-01-10T11:22:37;8.43;;;3.33;;
71671;SDS011;62112;45.638;11.714;2023-01-10T11:25:14;6.15;;;3.30;;
71671;SDS011;62112;45.638;11.714;2023-01-10T11:27:45;7.25;;;3.47;;
71671;SDS011;62112;45.638;11.714;2023-01-10T11:30:21;6.38;;;3.47;;
71671;SDS011;62112;45.638;11.714;2023-01-10T11:33:03;6.68;;;3.55;;
71671;SDS011;62112;45.638;11.714;2023-01-10T11:35:52;6.47;;;3.33;;
71671;SDS011;62112;45.638;11.714;2023-01-10T11:38:37;6.57;;;3.20;;
71671;SDS011;62112;45.638;11.714;2023-01-10T11:43:44;7.35;;;3.63;;
71671;SDS011;62112;45.638;11.714;2023-01-10T11:46:19;7.03;;;3.90;;
71671;SDS011;62112;45.638;11.714;2023-01-10T11:48:52;6.60;;;3.30;;
71671;SDS011;62112;45.638;11.714;2023-01-10T11:51:29;7.22;;;3.50;;
71671;SDS011;62112;45.638;11.714;2023-01-10T11:54:06;6.88;;;3.58;;
71671;SDS011;62112;45.638;11.714;2023-01-10T11:56:37;6.68;;;3.10;;
71671;SDS011;62112;45.638;11.714;2023-01-10T11:59:09;7.22;;;3.70;;
71671;SDS011;62112;45.638;11.714;2023-01-10T12:02:09;6.43;;;3.20;;
71671;SDS011;62112;45.638;11.714;2023-01-10T12:04:41;6.90;;;3.40;;
71671;SDS011;62112;45.638;11.714;2023-01-10T12:07:11;6.68;;;3.45;;
71671;SDS011;62112;45.638;11.714;2023-01-10T12:12:09;7.72;;;3.50;;
71671;SDS011;62112;45.638;11.714;2023-01-10T12:14:44;6.07;;;3.20;;
71671;SDS011;62112;45.638;11.714;2023-01-10T12:17:19;6.25;;;3.30;;
71671;SDS011;62112;45.638;11.714;2023-01-10T12:19:52;5.70;;;3.20;;
71671;SDS011;62112;45.638;11.714;2023-01-10T12:22:21;7.03;;;3.40;;
71671;SDS011;62112;45.638;11.714;2023-01-10T12:24:53;6.28;;;3.38;;
71671;SDS011;62112;45.638;11.714;2023-01-10T12:27:21;6.93;;;3.30;;
71671;SDS011;62112;45.638;11.714;2023-01-10T12:32:53;8.60;;;3.30;;
71671;SDS011;62112;45.638;11.714;2023-01-10T12:35:35;7.88;;;3.20;;
71671;SDS011;62112;45.638;11.714;2023-01-10T12:38:31;6.70;;;3.20;;
71671;SDS011;62112;45.638;11.714;2023-01-10T12:41:18;6.20;;;3.20;;
71671;SDS011;62112;45.638;11.714;2023-01-10T12:44:27;6.20;;;2.83;;
71671;SDS011;62112;45.638;11.714;2023-01-10T12:50:24;6.28;;;2.88;;
71671;SDS011;62112;45.638;11.714;2023-01-10T12:55:39;6.57;;;2.50;;
71671;SDS011;62112;45.638;11.714;2023-01-10T12:58:15;5.28;;;2.22;;
71671;SDS011;62112;45.638;11.714;2023-01-10T13:00:57;4.95;;;2.25;;
71671;SDS011;62112;45.638;11.714;2023-01-10T13:03:28;4.95;;;1.98;;
71671;SDS011;62112;45.638;11.714;2023-01-10T13:05:58;4.32;;;1.98;;
71671;SDS011;62112;45.638;11.714;2023-01-10T13:08:26;3.83;;;1.80;;
71671;SDS011;62112;45.638;11.714;2023-01-10T13:10:54;4.55;;;1.83;;
71671;SDS011;62112;45.638;11.714;2023-01-10T13:13:33;6.75;;;1.90;;
71671;SDS011;62112;45.638;11.714;2023-01-10T13:18:58;4.28;;;1.70;;
71671;SDS011;62112;45.638;11.714;2023-01-10T13:21:25;4.80;;;1.70;;
71671;SDS011;62112;45.638;11.714;2023-01-10T13:23:52;3.47;;;1.33;;
71671;SDS011;62112;45.638;11.714;2023-01-10T13:26:22;4.22;;;1.50;;
71671;SDS011;62112;45.638;11.714;2023-01-10T13:28:58;4.28;;;1.50;;
71671;SDS011;62112;45.638;11.714;2023-01-10T13:31:30;3.83;;;1.38;;
71671;SDS011;62112;45.638;11.714;2023-01-10T13:33:58;3.87;;;1.53;;
71671;SDS011;62112;45.638;11.714;2023-01-10T13:37:17;4.10;;;1.25;;
71671;SDS011;62112;45.638;11.714;2023-01-10T13:39:34;4.07;;;1.20;;
71671;SDS011;62112;45.638;11.714;2023-01-10T13:42:09;4.65;;;1.50;;
71671;SDS011;62112;45.638;11.714;2023-01-10T14:00:42;2.80;;;1.07;;
71671;SDS011;62112;45.638;11.714;2023-01-10T14:03:38;2.55;;;0.98;;
71671;SDS011;62112;45.638;11.714;2023-01-10T14:12:15;2.55;;;1.00;;
71671;SDS011;62112;45.638;11.714;2023-01-10T14:14:24;2.73;;;0.90;;
71671;SDS011;62112;45.638;11.714;2023-01-10T14:17:18;2.42;;;0.90;;
71671;SDS011;62112;45.638;11.714;2023-01-10T14:20:35;2.50;;;0.90;;
71671;SDS011;62112;45.638;11.714;2023-01-10T14:22:57;2.97;;;0.90;;
71671;SDS011;62112;45.638;11.714;2023-01-10T14:25:34;2.78;;;1.00;;
71671;SDS011;62112;45.638;11.714;2023-01-10T14:28:02;1.93;;;0.90;;
71671;SDS011;62112;45.638;11.714;2023-01-10T14:32:59;2.35;;;0.93;;
71671;SDS011;62112;45.638;11.714;2023-01-10T14:35:45;4.22;;;1.02;;
71671;SDS011;62112;45.638;11.714;2023-01-10T14:38:17;3.05;;;0.98;;
71671;SDS011;62112;45.638;11.714;2023-01-10T14:40:56;2.57;;;0.80;;
71671;SDS011;62112;45.638;11.714;2023-01-10T14:43:25;2.50;;;0.90;;
71671;SDS011;62112;45.638;11.714;2023-01-10T14:48:33;2.28;;;0.90;;
71671;SDS011;62112;45.638;11.714;2023-01-10T14:53:36;1.97;;;0.90;;
71671;SDS011;62112;45.638;11.714;2023-01-10T14:56:02;2.40;;;0.93;;
71671;SDS011;62112;45.638;11.714;2023-01-10T14:58:28;4.97;;;1.00;;
71671;SDS011;62112;45.638;11.714;2023-01-10T15:00:54;3.58;;;0.90;;
71671;SDS011;62112;45.638;11.714;2023-01-10T15:03:22;2.90;;;0.90;;
71671;SDS011;62112;45.638;11.714;2023-01-10T15:05:50;2.92;;;0.95;;
71671;SDS011;62112;45.638;11.714;2023-01-10T15:08:24;2.72;;;0.90;;
71671;SDS011;62112;45.638;11.714;2023-01-10T15:10:53;2.85;;;1.00;;
71671;SDS011;62112;45.638;11.714;2023-01-10T15:13:25;2.08;;;0.80;;
71671;SDS011;62112;45.638;11.714;2023-01-10T15:15:53;2.73;;;0.93;;
71671;SDS011;62112;45.638;11.714;2023-01-10T15:18:24;3.10;;;1.08;;
71671;SDS011;62112;45.638;11.714;2023-01-10T15:21:01;3.08;;;1.00;;
71671;SDS011;62112;45.638;11.714;2023-01-10T15:23:41;3.03;;;0.90;;
71671;SDS011;62112;45.638;11.714;2023-01-10T15:26:29;2.65;;;0.90;;
71671;SDS011;62112;45.638;11.714;2023-01-10T15:29:04;3.40;;;1.00;;
71671;SDS011;62112;45.638;11.714;2023-01-10T15:31:35;3.15;;;1.00;;
71671;SDS011;62112;45.638;11.714;2023-01-10T15:34:05;3.08;;;1.10;;
71671;SDS011;62112;45.638;11.714;2023-01-10T15:36:41;4.00;;;1.40;;
71671;SDS011;62112;45.638;11.714;2023-01-10T15:39:18;5.07;;;1.38;;
71671;SDS011;62112;45.638;11.714;2023-01-10T15:41:46;6.17;;;2.00;;
71671;SDS011;62112;45.638;11.714;2023-01-10T15:44:23;5.07;;;2.00;;
71671;SDS011;62112;45.638;11.714;2023-01-10T15:47:02;7.20;;;2.00;;
71671;SDS011;62112;45.638;11.714;2023-01-10T15:49:30;5.25;;;2.10;;
71671;SDS011;62112;45.638;11.714;2023-01-10T15:51:56;5.47;;;2.10;;
71671;SDS011;62112;45.638;11.714;2023-01-10T15:56:49;4.72;;;2.25;;
71671;SDS011;62112;45.638;11.714;2023-01-10T15:59:37;4.68;;;2.33;;
71671;SDS011;62112;45.638;11.714;2023-01-10T16:04:40;6.28;;;2.30;;
71671;SDS011;62112;45.638;11.714;2023-01-10T16:09:40;4.93;;;2.30;;
71671;SDS011;62112;45.638;11.714;2023-01-10T16:12:22;5.00;;;2.20;;
71671;SDS011;62112;45.638;11.714;2023-01-10T16:15:26;5.50;;;2.10;;
71671;SDS011;62112;45.638;11.714;2023-01-10T16:17:56;6.05;;;2.25;;
71671;SDS011;62112;45.638;11.714;2023-01-10T16:20:24;4.68;;;2.20;;
71671;SDS011;62112;45.638;11.714;2023-01-10T16:22:55;6.57;;;2.30;;
71671;SDS011;62112;45.638;11.714;2023-01-10T16:25:43;5.38;;;2.10;;
71671;SDS011;62112;45.638;11.714;2023-01-10T16:28:16;5.83;;;2.00;;
71671;SDS011;62112;45.638;11.714;2023-01-10T16:30:44;4.13;;;1.92;;
71671;SDS011;62112;45.638;11.714;2023-01-10T16:33:13;5.18;;;2.28;;
71671;SDS011;62112;45.638;11.714;2023-01-10T16:35:48;4.90;;;2.10;;
71671;SDS011;62112;45.638;11.714;2023-01-10T16:38:15;4.82;;;2.13;;
71671;SDS011;62112;45.638;11.714;2023-01-10T16:40:43;5.00;;;2.20;;
71671;SDS011;62112;45.638;11.714;2023-01-10T16:43:50;5.30;;;2.50;;
71671;SDS011;62112;45.638;11.714;2023-01-10T16:46:16;5.60;;;2.13;;
71671;SDS011;62112;45.638;11.714;2023-01-10T16:48:42;6.03;;;2.40;;
71671;SDS011;62112;45.638;11.714;2023-01-10T16:51:21;4.50;;;2.20;;
71671;SDS011;62112;45.638;11.714;2023-01-10T16:53:47;5.53;;;2.20;;
71671;SDS011;62112;45.638;11.714;2023-01-10T16:56:18;5.35;;;2.38;;
71671;SDS011;62112;45.638;11.714;2023-01-10T16:58:47;5.03;;;2.50;;
71671;SDS011;62112;45.638;11.714;2023-01-10T17:01:16;5.28;;;2.40;;